Terminal Aerodrome Forecast
Issued by NWS

Home | Current Version | Previous Version | Text Only | Print | Product List | Glossary On
Versions: 1 2 3 4 5 6 7 8 9 10 11 12 13 14 15 16
000
FTUS46 KMFR 230535
TAFOTH
TAF
KOTH 230535Z 2306/2406 15006KT P6SM SCT025 BKN250
     FM231000 16006KT P6SM SCT012 BKN020
     FM231700 17010KT P6SM SCT025 BKN250
     FM240300 14003KT P6SM BKN120 BKN250=

USA.gov is the U.S. government's official web portal to all federal, state and local government web resources and services.